sensor_id;sensor_type;location;lat;lon;timestamp;temperature;humidity
57026;DHT22;43961;52.940;6.834;2023-03-23T00:01:25;11.00;99.90
57026;DHT22;43961;52.940;6.834;2023-03-23T00:03:53;10.90;99.90
57026;DHT22;43961;52.940;6.834;2023-03-23T00:06:23;11.00;99.90
57026;DHT22;43961;52.940;6.834;2023-03-23T00:08:51;10.90;99.90
57026;DHT22;43961;52.940;6.834;2023-03-23T00:11:24;11.00;99.90
57026;DHT22;43961;52.940;6.834;2023-03-23T00:13:52;10.90;99.90
57026;DHT22;43961;52.940;6.834;2023-03-23T00:16:20;10.90;99.90
57026;DHT22;43961;52.940;6.834;2023-03-23T00:18:47;10.90;99.90
57026;DHT22;43961;52.940;6.834;2023-03-23T00:21:13;10.90;99.90
57026;DHT22;43961;52.940;6.834;2023-03-23T00:23:39;10.90;99.90
57026;DHT22;43961;52.940;6.834;2023-03-23T00:26:05;10.90;99.90
57026;DHT22;43961;52.940;6.834;2023-03-23T00:28:31;10.90;99.90
57026;DHT22;43961;52.940;6.834;2023-03-23T00:30:59;10.90;99.90
57026;DHT22;43961;52.940;6.834;2023-03-23T00:33:27;10.90;99.90
57026;DHT22;43961;52.940;6.834;2023-03-23T00:35:54;10.90;99.90
57026;DHT22;43961;52.940;6.834;2023-03-23T00:38:22;10.90;99.90
57026;DHT22;43961;52.940;6.834;2023-03-23T00:40:47;10.90;99.90
57026;DHT22;43961;52.940;6.834;2023-03-23T00:43:15;10.90;99.90
57026;DHT22;43961;52.940;6.834;2023-03-23T00:45:42;10.90;99.90
57026;DHT22;43961;52.940;6.834;2023-03-23T00:48:10;10.90;99.90
57026;DHT22;43961;52.940;6.834;2023-03-23T00:50:38;10.90;99.90
57026;DHT22;43961;52.940;6.834;2023-03-23T00:53:04;10.80;99.90
57026;DHT22;43961;52.940;6.834;2023-03-23T00:55:30;10.80;99.90
57026;DHT22;43961;52.940;6.834;2023-03-23T00:57:56;10.80;99.90
57026;DHT22;43961;52.940;6.834;2023-03-23T01:00:22;10.90;99.90
57026;DHT22;43961;52.940;6.834;2023-03-23T01:02:49;10.90;99.90
57026;DHT22;43961;52.940;6.834;2023-03-23T01:05:17;10.90;99.90
57026;DHT22;43961;52.940;6.834;2023-03-23T01:07:43;10.90;99.90
57026;DHT22;43961;52.940;6.834;2023-03-23T01:10:11;10.90;99.90
57026;DHT22;43961;52.940;6.834;2023-03-23T01:12:47;10.90;99.90
57026;DHT22;43961;52.940;6.834;2023-03-23T01:15:15;10.90;99.90
57026;DHT22;43961;52.940;6.834;2023-03-23T01:17:41;10.90;99.90
57026;DHT22;43961;52.940;6.834;2023-03-23T01:20:08;10.90;99.90
57026;DHT22;43961;52.940;6.834;2023-03-23T01:22:35;10.90;99.90
57026;DHT22;43961;52.940;6.834;2023-03-23T01:25:01;10.90;99.90
57026;DHT22;43961;52.940;6.834;2023-03-23T01:27:28;10.90;99.90
57026;DHT22;43961;52.940;6.834;2023-03-23T01:29:53;10.80;99.90
57026;DHT22;43961;52.940;6.834;2023-03-23T01:32:19;10.80;99.90
57026;DHT22;43961;52.940;6.834;2023-03-23T01:34:45;10.80;99.90
57026;DHT22;43961;52.940;6.834;2023-03-23T01:37:11;10.80;99.90
57026;DHT22;43961;52.940;6.834;2023-03-23T01:39:36;10.80;99.90
57026;DHT22;43961;52.940;6.834;2023-03-23T01:42:03;10.80;99.90
57026;DHT22;43961;52.940;6.834;2023-03-23T01:46:57;10.80;99.90
57026;DHT22;43961;52.940;6.834;2023-03-23T01:49:42;10.70;99.90
57026;DHT22;43961;52.940;6.834;2023-03-23T01:52:25;10.70;99.90
57026;DHT22;43961;52.940;6.834;2023-03-23T01:54:53;10.70;99.90
57026;DHT22;43961;52.940;6.834;2023-03-23T01:57:22;10.60;99.90
57026;DHT22;43961;52.940;6.834;2023-03-23T01:59:51;10.60;99.90
57026;DHT22;43961;52.940;6.834;2023-03-23T02:02:20;10.70;99.90
57026;DHT22;43961;52.940;6.834;2023-03-23T02:04:46;10.60;99.90
57026;DHT22;43961;52.940;6.834;2023-03-23T02:07:14;10.70;99.90
57026;DHT22;43961;52.940;6.834;2023-03-23T02:09:41;10.70;99.90
57026;DHT22;43961;52.940;6.834;2023-03-23T02:12:07;10.70;99.90
57026;DHT22;43961;52.940;6.834;2023-03-23T02:14:33;10.80;99.90
57026;DHT22;43961;52.940;6.834;2023-03-23T02:25:58;10.80;99.90
57026;DHT22;43961;52.940;6.834;2023-03-23T02:36:38;10.70;99.90
57026;DHT22;43961;52.940;6.834;2023-03-23T02:39:17;10.70;99.90
57026;DHT22;43961;52.940;6.834;2023-03-23T02:41:50;10.70;99.90
57026;DHT22;43961;52.940;6.834;2023-03-23T02:44:17;10.80;99.90
57026;DHT22;43961;52.940;6.834;2023-03-23T02:46:44;10.70;99.90
57026;DHT22;43961;52.940;6.834;2023-03-23T02:49:12;10.70;99.90
57026;DHT22;43961;52.940;6.834;2023-03-23T02:51:39;10.80;99.90
57026;DHT22;43961;52.940;6.834;2023-03-23T02:54:07;10.80;99.90
57026;DHT22;43961;52.940;6.834;2023-03-23T02:56:33;10.80;99.90
57026;DHT22;43961;52.940;6.834;2023-03-23T02:58:59;10.80;99.90
57026;DHT22;43961;52.940;6.834;2023-03-23T03:03:51;10.80;99.90
57026;DHT22;43961;52.940;6.834;2023-03-23T03:06:34;10.80;99.90
57026;DHT22;43961;52.940;6.834;2023-03-23T03:09:07;10.80;99.90
57026;DHT22;43961;52.940;6.834;2023-03-23T03:11:36;10.80;99.90
57026;DHT22;43961;52.940;6.834;2023-03-23T03:14:10;10.70;99.90
57026;DHT22;43961;52.940;6.834;2023-03-23T03:16:43;10.70;99.90
57026;DHT22;43961;52.940;6.834;2023-03-23T03:19:26;10.70;99.90
57026;DHT22;43961;52.940;6.834;2023-03-23T03:21:56;10.80;99.90
57026;DHT22;43961;52.940;6.834;2023-03-23T03:24:25;10.70;99.90
57026;DHT22;43961;52.940;6.834;2023-03-23T03:26:54;10.80;99.90
57026;DHT22;43961;52.940;6.834;2023-03-23T03:29:26;10.80;99.90
57026;DHT22;43961;52.940;6.834;2023-03-23T03:31:55;10.80;99.90
57026;DHT22;43961;52.940;6.834;2023-03-23T03:34:22;10.80;99.90
57026;DHT22;43961;52.940;6.834;2023-03-23T03:36:51;10.80;99.90
57026;DHT22;43961;52.940;6.834;2023-03-23T03:39:19;10.80;99.90
57026;DHT22;43961;52.940;6.834;2023-03-23T03:41:46;10.80;99.90
57026;DHT22;43961;52.940;6.834;2023-03-23T03:44:12;10.80;99.90
57026;DHT22;43961;52.940;6.834;2023-03-23T03:46:38;10.80;99.90
57026;DHT22;43961;52.940;6.834;2023-03-23T03:49:06;10.80;99.90
57026;DHT22;43961;52.940;6.834;2023-03-23T03:51:33;10.80;99.90
57026;DHT22;43961;52.940;6.834;2023-03-23T03:54:00;10.80;99.90
57026;DHT22;43961;52.940;6.834;2023-03-23T03:56:26;10.80;99.90
57026;DHT22;43961;52.940;6.834;2023-03-23T03:58:52;10.90;99.90
57026;DHT22;43961;52.940;6.834;2023-03-23T04:01:20;10.90;99.90
57026;DHT22;43961;52.940;6.834;2023-03-23T04:03:49;10.90;99.90
57026;DHT22;43961;52.940;6.834;2023-03-23T04:06:16;10.90;99.90
57026;DHT22;43961;52.940;6.834;2023-03-23T04:08:43;11.00;99.90
57026;DHT22;43961;52.940;6.834;2023-03-23T04:11:11;11.00;99.90
57026;DHT22;43961;52.940;6.834;2023-03-23T04:13:38;11.00;99.90
57026;DHT22;43961;52.940;6.834;2023-03-23T04:16:04;11.00;99.90
57026;DHT22;43961;52.940;6.834;2023-03-23T04:18:30;11.00;99.90
57026;DHT22;43961;52.940;6.834;2023-03-23T04:20:59;11.00;99.90
57026;DHT22;43961;52.940;6.834;2023-03-23T04:23:27;11.00;99.90
57026;DHT22;43961;52.940;6.834;2023-03-23T04:25:56;11.00;99.90
57026;DHT22;43961;52.940;6.834;2023-03-23T04:28:24;11.00;99.90
57026;DHT22;43961;52.940;6.834;2023-03-23T04:30:53;11.10;99.90
57026;DHT22;43961;52.940;6.834;2023-03-23T04:33:20;11.10;99.90
57026;DHT22;43961;52.940;6.834;2023-03-23T04:35:47;11.10;99.90
57026;DHT22;43961;52.940;6.834;2023-03-23T04:38:15;11.00;99.90
57026;DHT22;43961;52.940;6.834;2023-03-23T04:40:43;11.10;99.90
57026;DHT22;43961;52.940;6.834;2023-03-23T04:43:09;11.10;99.90
57026;DHT22;43961;52.940;6.834;2023-03-23T04:45:38;11.10;99.90
57026;DHT22;43961;52.940;6.834;2023-03-23T04:48:07;11.10;99.90
57026;DHT22;43961;52.940;6.834;2023-03-23T04:50:33;11.10;99.90
57026;DHT22;43961;52.940;6.834;2023-03-23T04:53:00;11.20;99.90
57026;DHT22;43961;52.940;6.834;2023-03-23T04:55:31;11.20;99.90
57026;DHT22;43961;52.940;6.834;2023-03-23T04:57:57;11.20;99.90
57026;DHT22;43961;52.940;6.834;2023-03-23T05:00:26;11.20;99.90
57026;DHT22;43961;52.940;6.834;2023-03-23T05:02:52;11.10;99.90
57026;DHT22;43961;52.940;6.834;2023-03-23T05:05:19;11.10;99.90
57026;DHT22;43961;52.940;6.834;2023-03-23T05:07:45;11.20;99.90
57026;DHT22;43961;52.940;6.834;2023-03-23T05:10:13;11.10;99.90
57026;DHT22;43961;52.940;6.834;2023-03-23T05:12:39;11.10;99.90
57026;DHT22;43961;52.940;6.834;2023-03-23T05:15:06;11.00;99.90
57026;DHT22;43961;52.940;6.834;2023-03-23T05:17:32;10.80;99.90
57026;DHT22;43961;52.940;6.834;2023-03-23T05:19:59;10.60;99.90
57026;DHT22;43961;52.940;6.834;2023-03-23T05:22:28;10.50;99.90
57026;DHT22;43961;52.940;6.834;2023-03-23T05:24:54;10.50;99.90
57026;DHT22;43961;52.940;6.834;2023-03-23T05:27:20;10.40;99.90
57026;DHT22;43961;52.940;6.834;2023-03-23T05:29:46;10.40;99.90
57026;DHT22;43961;52.940;6.834;2023-03-23T05:32:17;10.40;99.90
57026;DHT22;43961;52.940;6.834;2023-03-23T05:34:44;10.40;99.90
57026;DHT22;43961;52.940;6.834;2023-03-23T05:37:12;10.40;99.90
57026;DHT22;43961;52.940;6.834;2023-03-23T05:39:39;10.30;99.90
57026;DHT22;43961;52.940;6.834;2023-03-23T05:42:06;10.30;99.90
57026;DHT22;43961;52.940;6.834;2023-03-23T05:44:33;10.30;99.90
57026;DHT22;43961;52.940;6.834;2023-03-23T05:46:58;10.30;99.90
57026;DHT22;43961;52.940;6.834;2023-03-23T05:49:24;10.20;99.90
57026;DHT22;43961;52.940;6.834;2023-03-23T05:51:51;10.20;99.90
57026;DHT22;43961;52.940;6.834;2023-03-23T05:54:17;10.20;99.90
57026;DHT22;43961;52.940;6.834;2023-03-23T05:56:43;10.20;99.90
57026;DHT22;43961;52.940;6.834;2023-03-23T05:59:09;10.30;99.90
57026;DHT22;43961;52.940;6.834;2023-03-23T06:01:36;10.30;99.90
57026;DHT22;43961;52.940;6.834;2023-03-23T06:04:03;10.30;99.90
57026;DHT22;43961;52.940;6.834;2023-03-23T06:06:30;10.30;99.90
57026;DHT22;43961;52.940;6.834;2023-03-23T06:08:57;10.30;99.90
57026;DHT22;43961;52.940;6.834;2023-03-23T06:11:24;10.30;99.90
57026;DHT22;43961;52.940;6.834;2023-03-23T06:13:50;10.30;99.90
57026;DHT22;43961;52.940;6.834;2023-03-23T06:16:16;10.30;99.90
57026;DHT22;43961;52.940;6.834;2023-03-23T06:18:42;10.30;99.90
57026;DHT22;43961;52.940;6.834;2023-03-23T06:21:09;10.30;99.90
57026;DHT22;43961;52.940;6.834;2023-03-23T06:23:35;10.20;99.90
57026;DHT22;43961;52.940;6.834;2023-03-23T06:26:05;10.20;99.90
57026;DHT22;43961;52.940;6.834;2023-03-23T06:28:32;10.20;99.90
57026;DHT22;43961;52.940;6.834;2023-03-23T06:31:02;10.20;99.90
57026;DHT22;43961;52.940;6.834;2023-03-23T06:33:30;10.20;99.90
57026;DHT22;43961;52.940;6.834;2023-03-23T06:35:56;10.10;99.90
57026;DHT22;43961;52.940;6.834;2023-03-23T06:38:23;10.20;99.90
57026;DHT22;43961;52.940;6.834;2023-03-23T06:40:52;10.20;99.90
57026;DHT22;43961;52.940;6.834;2023-03-23T06:43:17;10.20;99.90
57026;DHT22;43961;52.940;6.834;2023-03-23T06:45:43;10.20;99.90
57026;DHT22;43961;52.940;6.834;2023-03-23T06:48:09;10.20;99.90
57026;DHT22;43961;52.940;6.834;2023-03-23T06:50:34;10.30;99.90
57026;DHT22;43961;52.940;6.834;2023-03-23T06:53:00;10.30;99.90
57026;DHT22;43961;52.940;6.834;2023-03-23T06:55:26;10.30;99.90
57026;DHT22;43961;52.940;6.834;2023-03-23T06:57:52;10.30;99.90
57026;DHT22;43961;52.940;6.834;2023-03-23T07:00:17;10.30;99.90
57026;DHT22;43961;52.940;6.834;2023-03-23T07:02:43;10.40;99.90
57026;DHT22;43961;52.940;6.834;2023-03-23T07:05:10;10.40;99.90
57026;DHT22;43961;52.940;6.834;2023-03-23T07:07:40;10.50;99.90
57026;DHT22;43961;52.940;6.834;2023-03-23T07:10:08;10.50;99.90
57026;DHT22;43961;52.940;6.834;2023-03-23T07:12:35;10.50;99.90
57026;DHT22;43961;52.940;6.834;2023-03-23T07:15:04;10.50;99.90
57026;DHT22;43961;52.940;6.834;2023-03-23T07:17:30;10.60;99.90
57026;DHT22;43961;52.940;6.834;2023-03-23T07:19:57;10.60;99.90
57026;DHT22;43961;52.940;6.834;2023-03-23T07:22:22;10.60;99.90
57026;DHT22;43961;52.940;6.834;2023-03-23T07:24:48;10.60;99.90
57026;DHT22;43961;52.940;6.834;2023-03-23T07:27:14;10.70;99.90
57026;DHT22;43961;52.940;6.834;2023-03-23T07:29:40;10.70;99.90
57026;DHT22;43961;52.940;6.834;2023-03-23T07:32:08;10.70;99.90
57026;DHT22;43961;52.940;6.834;2023-03-23T07:34:36;10.80;99.90
57026;DHT22;43961;52.940;6.834;2023-03-23T07:37:02;10.80;99.90
57026;DHT22;43961;52.940;6.834;2023-03-23T07:39:28;10.80;99.90
57026;DHT22;43961;52.940;6.834;2023-03-23T07:41:54;10.80;99.90
57026;DHT22;43961;52.940;6.834;2023-03-23T07:44:20;10.90;99.90
57026;DHT22;43961;52.940;6.834;2023-03-23T07:46:46;11.00;99.90
57026;DHT22;43961;52.940;6.834;2023-03-23T07:49:12;11.20;99.90
57026;DHT22;43961;52.940;6.834;2023-03-23T07:51:39;11.40;99.90
57026;DHT22;43961;52.940;6.834;2023-03-23T07:54:06;11.60;99.90
57026;DHT22;43961;52.940;6.834;2023-03-23T07:56:36;11.70;99.90
57026;DHT22;43961;52.940;6.834;2023-03-23T07:59:06;11.80;99.90
57026;DHT22;43961;52.940;6.834;2023-03-23T08:01:32;11.80;99.90
57026;DHT22;43961;52.940;6.834;2023-03-23T08:03:58;11.80;99.90
57026;DHT22;43961;52.940;6.834;2023-03-23T08:06:25;11.70;99.90
57026;DHT22;43961;52.940;6.834;2023-03-23T08:08:51;11.70;99.90
57026;DHT22;43961;52.940;6.834;2023-03-23T08:11:17;11.70;99.90
57026;DHT22;43961;52.940;6.834;2023-03-23T08:13:46;11.70;99.90
57026;DHT22;43961;52.940;6.834;2023-03-23T08:16:12;11.70;99.90
57026;DHT22;43961;52.940;6.834;2023-03-23T08:18:39;11.70;99.90
57026;DHT22;43961;52.940;6.834;2023-03-23T08:21:06;11.70;99.90
57026;DHT22;43961;52.940;6.834;2023-03-23T08:23:34;11.80;99.90
57026;DHT22;43961;52.940;6.834;2023-03-23T08:26:00;11.80;99.90
57026;DHT22;43961;52.940;6.834;2023-03-23T08:28:27;11.80;99.90
57026;DHT22;43961;52.940;6.834;2023-03-23T08:30:52;11.90;99.90
57026;DHT22;43961;52.940;6.834;2023-03-23T08:33:18;11.90;99.90
57026;DHT22;43961;52.940;6.834;2023-03-23T08:35:44;12.00;99.90
57026;DHT22;43961;52.940;6.834;2023-03-23T08:38:11;12.00;99.90
57026;DHT22;43961;52.940;6.834;2023-03-23T08:40:37;12.00;99.90
57026;DHT22;43961;52.940;6.834;2023-03-23T08:43:05;12.10;99.90
57026;DHT22;43961;52.940;6.834;2023-03-23T08:45:31;12.10;99.90
57026;DHT22;43961;52.940;6.834;2023-03-23T08:47:56;12.10;99.90
57026;DHT22;43961;52.940;6.834;2023-03-23T08:50:26;12.10;99.90
57026;DHT22;43961;52.940;6.834;2023-03-23T08:52:53;12.10;99.90
57026;DHT22;43961;52.940;6.834;2023-03-23T08:55:20;12.10;99.90
57026;DHT22;43961;52.940;6.834;2023-03-23T08:57:47;12.10;99.90
57026;DHT22;43961;52.940;6.834;2023-03-23T09:00:18;12.20;99.90
57026;DHT22;43961;52.940;6.834;2023-03-23T09:02:49;12.20;99.90
57026;DHT22;43961;52.940;6.834;2023-03-23T09:05:17;12.40;99.90
57026;DHT22;43961;52.940;6.834;2023-03-23T09:07:46;12.50;99.90
57026;DHT22;43961;52.940;6.834;2023-03-23T09:10:12;12.60;99.90
57026;DHT22;43961;52.940;6.834;2023-03-23T09:12:40;12.60;99.90
57026;DHT22;43961;52.940;6.834;2023-03-23T09:15:07;12.60;99.90
57026;DHT22;43961;52.940;6.834;2023-03-23T09:17:36;12.60;99.90
57026;DHT22;43961;52.940;6.834;2023-03-23T09:20:03;12.70;99.90
57026;DHT22;43961;52.940;6.834;2023-03-23T09:22:33;12.80;99.90
57026;DHT22;43961;52.940;6.834;2023-03-23T09:24:59;12.90;99.90
57026;DHT22;43961;52.940;6.834;2023-03-23T09:27:25;12.90;99.90
57026;DHT22;43961;52.940;6.834;2023-03-23T09:29:51;12.90;99.90
57026;DHT22;43961;52.940;6.834;2023-03-23T09:32:17;13.00;99.90
57026;DHT22;43961;52.940;6.834;2023-03-23T09:34:43;13.20;99.90
57026;DHT22;43961;52.940;6.834;2023-03-23T09:37:08;13.30;99.90
57026;DHT22;43961;52.940;6.834;2023-03-23T09:39:34;13.40;99.90
57026;DHT22;43961;52.940;6.834;2023-03-23T09:50:24;13.10;99.90
57026;DHT22;43961;52.940;6.834;2023-03-23T09:52:56;13.10;99.90
57026;DHT22;43961;52.940;6.834;2023-03-23T09:55:25;13.20;99.90
57026;DHT22;43961;52.940;6.834;2023-03-23T10:00:43;13.30;99.90
57026;DHT22;43961;52.940;6.834;2023-03-23T10:03:18;13.40;99.90
57026;DHT22;43961;52.940;6.834;2023-03-23T10:05:50;13.40;99.90
57026;DHT22;43961;52.940;6.834;2023-03-23T10:08:22;13.40;99.90
57026;DHT22;43961;52.940;6.834;2023-03-23T10:11:07;13.50;99.90
57026;DHT22;43961;52.940;6.834;2023-03-23T10:16:12;14.00;99.90
57026;DHT22;43961;52.940;6.834;2023-03-23T10:18:54;14.10;99.90
57026;DHT22;43961;52.940;6.834;2023-03-23T10:21:23;14.30;99.90
57026;DHT22;43961;52.940;6.834;2023-03-23T10:24:00;14.50;99.90
57026;DHT22;43961;52.940;6.834;2023-03-23T10:29:19;14.90;99.90
57026;DHT22;43961;52.940;6.834;2023-03-23T10:34:27;14.80;99.90
57026;DHT22;43961;52.940;6.834;2023-03-23T10:37:22;14.80;99.90
57026;DHT22;43961;52.940;6.834;2023-03-23T10:39:55;14.50;99.90
57026;DHT22;43961;52.940;6.834;2023-03-23T10:42:26;14.30;99.90
57026;DHT22;43961;52.940;6.834;2023-03-23T10:44:53;14.10;99.90
57026;DHT22;43961;52.940;6.834;2023-03-23T10:47:20;14.10;99.90
57026;DHT22;43961;52.940;6.834;2023-03-23T10:52:36;14.10;99.90
57026;DHT22;43961;52.940;6.834;2023-03-23T10:57:39;14.00;99.90
57026;DHT22;43961;52.940;6.834;2023-03-23T11:00:06;14.10;99.90
57026;DHT22;43961;52.940;6.834;2023-03-23T11:02:44;14.10;99.90
57026;DHT22;43961;52.940;6.834;2023-03-23T11:05:44;14.10;99.90
57026;DHT22;43961;52.940;6.834;2023-03-23T11:08:16;14.40;99.90
57026;DHT22;43961;52.940;6.834;2023-03-23T11:10:53;14.50;99.90
57026;DHT22;43961;52.940;6.834;2023-03-23T11:13:21;14.70;99.90
57026;DHT22;43961;52.940;6.834;2023-03-23T11:15:48;14.90;99.90
57026;DHT22;43961;52.940;6.834;2023-03-23T11:18:25;15.10;99.90
57026;DHT22;43961;52.940;6.834;2023-03-23T11:20:57;15.30;99.90
57026;DHT22;43961;52.940;6.834;2023-03-23T11:26:16;15.20;99.90
57026;DHT22;43961;52.940;6.834;2023-03-23T11:28:48;15.20;99.90
57026;DHT22;43961;52.940;6.834;2023-03-23T11:31:17;15.30;99.90
57026;DHT22;43961;52.940;6.834;2023-03-23T11:36:18;15.30;99.90
57026;DHT22;43961;52.940;6.834;2023-03-23T11:38:44;15.30;99.90
57026;DHT22;43961;52.940;6.834;2023-03-23T11:41:11;15.50;99.90
57026;DHT22;43961;52.940;6.834;2023-03-23T11:43:44;15.70;99.90
57026;DHT22;43961;52.940;6.834;2023-03-23T11:49:01;16.10;99.90
57026;DHT22;43961;52.940;6.834;2023-03-23T11:51:38;16.30;99.90
57026;DHT22;43961;52.940;6.834;2023-03-23T11:56:38;15.90;99.90
57026;DHT22;43961;52.940;6.834;2023-03-23T11:59:12;15.60;99.90
57026;DHT22;43961;52.940;6.834;2023-03-23T12:04:41;15.30;99.90
57026;DHT22;43961;52.940;6.834;2023-03-23T12:10:02;15.40;99.90
57026;DHT22;43961;52.940;6.834;2023-03-23T12:12:47;15.30;99.90
57026;DHT22;43961;52.940;6.834;2023-03-23T12:16:20;15.30;99.90
57026;DHT22;43961;52.940;6.834;2023-03-23T12:18:48;15.20;99.90
57026;DHT22;43961;52.940;6.834;2023-03-23T12:21:27;15.30;99.90
57026;DHT22;43961;52.940;6.834;2023-03-23T12:26:41;15.60;99.90
57026;DHT22;43961;52.940;6.834;2023-03-23T12:37:53;15.40;99.90
57026;DHT22;43961;52.940;6.834;2023-03-23T12:48:31;15.20;99.90
57026;DHT22;43961;52.940;6.834;2023-03-23T12:51:27;15.10;99.90
57026;DHT22;43961;52.940;6.834;2023-03-23T12:56:33;15.00;99.90
57026;DHT22;43961;52.940;6.834;2023-03-23T13:04:36;15.00;99.90
57026;DHT22;43961;52.940;6.834;2023-03-23T13:07:06;14.90;99.90
57026;DHT22;43961;52.940;6.834;2023-03-23T13:09:43;14.80;99.90
57026;DHT22;43961;52.940;6.834;2023-03-23T13:12:14;14.70;99.90
57026;DHT22;43961;52.940;6.834;2023-03-23T13:17:38;14.70;99.90
57026;DHT22;43961;52.940;6.834;2023-03-23T13:20:39;14.80;99.90
57026;DHT22;43961;52.940;6.834;2023-03-23T13:23:12;14.90;99.90
57026;DHT22;43961;52.940;6.834;2023-03-23T13:25:53;15.20;99.90
57026;DHT22;43961;52.940;6.834;2023-03-23T13:28:25;15.30;99.90
57026;DHT22;43961;52.940;6.834;2023-03-23T13:31:17;15.40;99.90
57026;DHT22;43961;52.940;6.834;2023-03-23T13:33:59;15.50;99.90
57026;DHT22;43961;52.940;6.834;2023-03-23T13:36:38;15.50;99.90
57026;DHT22;43961;52.940;6.834;2023-03-23T13:39:21;15.60;99.90
57026;DHT22;43961;52.940;6.834;2023-03-23T13:52:46;15.70;99.90
57026;DHT22;43961;52.940;6.834;2023-03-23T14:03:39;15.80;99.90
57026;DHT22;43961;52.940;6.834;2023-03-23T14:06:08;15.70;99.90
57026;DHT22;43961;52.940;6.834;2023-03-23T14:08:42;15.50;99.90
57026;DHT22;43961;52.940;6.834;2023-03-23T14:11:14;15.40;99.90
57026;DHT22;43961;52.940;6.834;2023-03-23T14:14:06;15.30;99.90
57026;DHT22;43961;52.940;6.834;2023-03-23T14:16:43;15.30;99.90
57026;DHT22;43961;52.940;6.834;2023-03-23T14:19:28;15.30;99.90
57026;DHT22;43961;52.940;6.834;2023-03-23T14:21:56;15.30;99.90
57026;DHT22;43961;52.940;6.834;2023-03-23T14:24:31;15.40;99.90
57026;DHT22;43961;52.940;6.834;2023-03-23T14:27:13;15.40;99.90
57026;DHT22;43961;52.940;6.834;2023-03-23T14:29:40;15.30;99.90
57026;DHT22;43961;52.940;6.834;2023-03-23T14:32:07;15.20;99.90
57026;DHT22;43961;52.940;6.834;2023-03-23T14:34:33;15.10;99.90
57026;DHT22;43961;52.940;6.834;2023-03-23T14:37:01;14.90;99.90
57026;DHT22;43961;52.940;6.834;2023-03-23T14:39:32;14.80;99.90
57026;DHT22;43961;52.940;6.834;2023-03-23T14:42:12;14.80;99.90
57026;DHT22;43961;52.940;6.834;2023-03-23T14:44:47;14.90;99.90
57026;DHT22;43961;52.940;6.834;2023-03-23T14:47:26;14.90;99.90
57026;DHT22;43961;52.940;6.834;2023-03-23T14:49:55;14.70;99.90
57026;DHT22;43961;52.940;6.834;2023-03-23T14:52:23;14.60;99.90
57026;DHT22;43961;52.940;6.834;2023-03-23T14:54:50;14.60;99.90
57026;DHT22;43961;52.940;6.834;2023-03-23T14:57:18;14.50;99.90
57026;DHT22;43961;52.940;6.834;2023-03-23T14:59:46;14.60;99.90
57026;DHT22;43961;52.940;6.834;2023-03-23T15:02:31;14.60;99.90
57026;DHT22;43961;52.940;6.834;2023-03-23T15:05:04;14.60;99.90
57026;DHT22;43961;52.940;6.834;2023-03-23T15:07:36;14.60;99.90
57026;DHT22;43961;52.940;6.834;2023-03-23T15:10:06;14.60;99.90
57026;DHT22;43961;52.940;6.834;2023-03-23T15:12:33;14.60;99.90
57026;DHT22;43961;52.940;6.834;2023-03-23T15:15:03;14.60;99.90
57026;DHT22;43961;52.940;6.834;2023-03-23T15:17:31;14.50;99.90
57026;DHT22;43961;52.940;6.834;2023-03-23T15:20:10;14.50;99.90
57026;DHT22;43961;52.940;6.834;2023-03-23T15:22:45;14.50;99.90
57026;DHT22;43961;52.940;6.834;2023-03-23T15:25:22;14.50;99.90
57026;DHT22;43961;52.940;6.834;2023-03-23T15:27:53;14.50;99.90
57026;DHT22;43961;52.940;6.834;2023-03-23T15:32:54;14.50;99.90
57026;DHT22;43961;52.940;6.834;2023-03-23T15:35:25;14.60;99.90
57026;DHT22;43961;52.940;6.834;2023-03-23T15:37:56;14.60;99.90
57026;DHT22;43961;52.940;6.834;2023-03-23T15:40:24;14.60;99.90
57026;DHT22;43961;52.940;6.834;2023-03-23T15:43:48;14.60;99.90
57026;DHT22;43961;52.940;6.834;2023-03-23T15:46:18;14.60;99.90
57026;DHT22;43961;52.940;6.834;2023-03-23T15:51:28;14.50;99.90
57026;DHT22;43961;52.940;6.834;2023-03-23T15:53:55;14.50;99.90
57026;DHT22;43961;52.940;6.834;2023-03-23T15:56:22;14.50;99.90
57026;DHT22;43961;52.940;6.834;2023-03-23T15:58:48;14.50;99.90
57026;DHT22;43961;52.940;6.834;2023-03-23T16:01:23;14.50;99.90
57026;DHT22;43961;52.940;6.834;2023-03-23T16:06:24;14.40;99.90
57026;DHT22;43961;52.940;6.834;2023-03-23T16:08:51;14.40;99.90
57026;DHT22;43961;52.940;6.834;2023-03-23T16:11:17;14.40;99.90
57026;DHT22;43961;52.940;6.834;2023-03-23T16:13:44;14.40;99.90
57026;DHT22;43961;52.940;6.834;2023-03-23T16:18:41;14.20;99.90
57026;DHT22;43961;52.940;6.834;2023-03-23T16:21:06;14.10;99.90
57026;DHT22;43961;52.940;6.834;2023-03-23T16:23:32;14.00;99.90
57026;DHT22;43961;52.940;6.834;2023-03-23T16:25:58;14.00;99.90
57026;DHT22;43961;52.940;6.834;2023-03-23T16:28:23;13.90;99.90
57026;DHT22;43961;52.940;6.834;2023-03-23T16:30:49;13.90;99.90
57026;DHT22;43961;52.940;6.834;2023-03-23T16:33:16;13.80;99.90
57026;DHT22;43961;52.940;6.834;2023-03-23T16:35:41;13.80;99.90
57026;DHT22;43961;52.940;6.834;2023-03-23T16:38:12;13.80;99.90
57026;DHT22;43961;52.940;6.834;2023-03-23T16:40:39;13.70;99.90
57026;DHT22;43961;52.940;6.834;2023-03-23T16:43:05;13.70;99.90
57026;DHT22;43961;52.940;6.834;2023-03-23T16:45:31;13.70;99.90
57026;DHT22;43961;52.940;6.834;2023-03-23T16:47:57;13.70;99.90
57026;DHT22;43961;52.940;6.834;2023-03-23T16:50:27;13.60;99.90
57026;DHT22;43961;52.940;6.834;2023-03-23T16:52:53;13.60;99.90
57026;DHT22;43961;52.940;6.834;2023-03-23T16:55:19;13.60;99.90
57026;DHT22;43961;52.940;6.834;2023-03-23T16:57:46;13.50;99.90
57026;DHT22;43961;52.940;6.834;2023-03-23T17:00:16;13.50;99.90
57026;DHT22;43961;52.940;6.834;2023-03-23T17:02:48;13.50;99.90
57026;DHT22;43961;52.940;6.834;2023-03-23T17:05:17;13.40;99.90
57026;DHT22;43961;52.940;6.834;2023-03-23T17:07:44;13.30;99.90
57026;DHT22;43961;52.940;6.834;2023-03-23T17:10:11;13.30;99.90
57026;DHT22;43961;52.940;6.834;2023-03-23T17:12:38;13.10;99.90
57026;DHT22;43961;52.940;6.834;2023-03-23T17:15:06;13.10;99.90
57026;DHT22;43961;52.940;6.834;2023-03-23T17:17:32;13.00;99.90
57026;DHT22;43961;52.940;6.834;2023-03-23T17:19:57;12.90;99.90
57026;DHT22;43961;52.940;6.834;2023-03-23T17:22:24;12.90;99.90
57026;DHT22;43961;52.940;6.834;2023-03-23T17:24:53;12.80;99.90
57026;DHT22;43961;52.940;6.834;2023-03-23T17:27:20;12.80;99.90
57026;DHT22;43961;52.940;6.834;2023-03-23T17:29:46;12.70;99.90
57026;DHT22;43961;52.940;6.834;2023-03-23T17:32:12;12.70;99.90
57026;DHT22;43961;52.940;6.834;2023-03-23T17:34:38;12.60;99.90
57026;DHT22;43961;52.940;6.834;2023-03-23T17:37:04;12.60;99.90
57026;DHT22;43961;52.940;6.834;2023-03-23T17:39:30;12.60;99.90
57026;DHT22;43961;52.940;6.834;2023-03-23T17:41:57;12.50;99.90
57026;DHT22;43961;52.940;6.834;2023-03-23T17:44:23;12.40;99.90
57026;DHT22;43961;52.940;6.834;2023-03-23T17:46:49;12.40;99.90